createdAt,value
2023-05-13T00:01:09.338Z,57.51
2023-05-13T00:06:11.152Z,57.51
2023-05-13T00:11:12.981Z,57.44
2023-05-13T00:16:14.940Z,57.98
2023-05-13T00:21:16.936Z,58.40
2023-05-13T00:26:18.817Z,58.86
2023-05-13T00:31:20.542Z,59.01
2023-05-13T00:36:22.263Z,59.38
2023-05-13T00:41:24.145Z,58.72
2023-05-13T00:46:33.270Z,58.96
2023-05-13T00:51:36.099Z,59.68
2023-05-13T00:56:38.676Z,59.77
2023-05-13T01:02:17.780Z,59.10
2023-05-13T01:07:28.614Z,59.29
2023-05-13T01:12:38.272Z,60.61
2023-05-13T01:18:01.906Z,61.20
2023-05-13T01:23:04.093Z,70.46
2023-05-13T01:28:08.482Z,71.01
2023-05-13T01:33:10.949Z,63.04
2023-05-13T01:38:15.520Z,54.82
2023-05-13T01:43:18.004Z,52.29
2023-05-13T01:48:19.800Z,52.55
2023-05-13T01:53:21.758Z,53.94
2023-05-13T01:58:23.544Z,55.36
2023-05-13T02:03:25.557Z,56.19
2023-05-13T02:08:27.599Z,56.94
2023-05-13T02:13:30.408Z,58.41
2023-05-13T02:18:32.202Z,60.14
2023-05-13T02:23:34.152Z,70.34
2023-05-13T02:28:36.442Z,71.30
2023-05-13T02:33:38.216Z,62.36
2023-05-13T02:38:40.193Z,53.74
2023-05-13T02:43:42.171Z,51.54
2023-05-13T02:48:43.949Z,52.28
2023-05-13T02:53:45.729Z,53.92
2023-05-13T02:58:47.514Z,54.84
2023-05-13T03:03:49.991Z,56.96
2023-05-13T03:08:51.803Z,58.33
2023-05-13T03:13:53.552Z,58.94
2023-05-13T03:18:55.364Z,60.10
2023-05-13T03:23:57.091Z,71.70
2023-05-13T03:28:58.772Z,70.99
2023-05-13T03:34:00.549Z,62.47
2023-05-13T03:39:02.354Z,54.06
2023-05-13T03:44:04.510Z,51.77
2023-05-13T03:49:06.195Z,52.29
2023-05-13T03:54:07.945Z,53.52
2023-05-13T03:59:09.619Z,55.09
2023-05-13T04:04:11.400Z,56.55
2023-05-13T04:09:13.075Z,58.20
2023-05-13T04:14:14.845Z,59.41
2023-05-13T04:19:16.624Z,70.86
2023-05-13T04:24:18.394Z,69.97
2023-05-13T04:29:20.199Z,60.93
2023-05-13T04:34:21.948Z,51.77
2023-05-13T04:39:23.825Z,49.75
2023-05-13T04:44:25.806Z,50.77
2023-05-13T04:49:27.581Z,51.51
2023-05-13T04:54:30.177Z,51.88
2023-05-13T04:59:32.460Z,52.12
2023-05-13T05:04:34.150Z,52.45
2023-05-13T05:09:36.024Z,52.43
2023-05-13T05:14:38.113Z,52.99
2023-05-13T05:19:40.127Z,52.90
2023-05-13T05:24:42.058Z,52.73
2023-05-13T05:29:44.065Z,52.41
2023-05-13T05:34:45.914Z,52.47
2023-05-13T05:39:47.831Z,52.50
2023-05-13T05:44:49.470Z,52.51
2023-05-13T05:49:51.462Z,52.10
2023-05-13T05:54:53.319Z,52.46
2023-05-13T05:59:55.318Z,51.99
2023-05-13T06:04:57.194Z,51.71
2023-05-13T06:09:58.950Z,51.47
2023-05-13T06:15:01.357Z,50.61
2023-05-13T06:20:04.448Z,49.58
2023-05-13T06:25:06.921Z,49.04
2023-05-13T06:30:09.165Z,48.32
2023-05-13T06:35:11.005Z,48.02
2023-05-13T06:40:13.090Z,47.54
2023-05-13T06:45:15.175Z,47.27
2023-05-13T06:50:17.388Z,45.78
2023-05-13T06:55:19.451Z,44.35
2023-05-13T07:00:21.844Z,44.14
2023-05-13T07:05:23.907Z,43.72
2023-05-13T07:10:25.785Z,42.51
2023-05-13T07:15:28.580Z,40.91
2023-05-13T07:20:31.072Z,40.50
2023-05-13T07:25:33.256Z,40.34
2023-05-13T07:30:35.077Z,39.33
2023-05-13T07:35:37.418Z,38.40
2023-05-13T07:40:39.406Z,37.45
2023-05-13T07:45:41.876Z,36.48
2023-05-13T07:50:45.528Z,36.26
2023-05-13T07:55:47.298Z,35.54
2023-05-13T08:00:49.680Z,34.53
2023-05-13T08:05:51.657Z,34.40
2023-05-13T08:10:53.462Z,34.09
2023-05-13T08:15:55.338Z,33.44
2023-05-13T08:20:57.222Z,33.45
2023-05-13T08:25:59.081Z,31.76
2023-05-13T08:31:03.095Z,31.77
2023-05-13T08:36:05.885Z,31.46
2023-05-13T08:41:08.405Z,31.43
2023-05-13T08:46:12.426Z,30.98
2023-05-13T08:51:14.389Z,30.14
2023-05-13T08:56:16.169Z,30.03
2023-05-13T09:01:18.196Z,29.77
2023-05-13T09:06:20.535Z,29.48
2023-05-13T09:11:22.824Z,29.73
2023-05-13T09:16:26.483Z,29.54
2023-05-13T09:21:33.539Z,29.77
2023-05-13T09:26:36.137Z,28.49
2023-05-13T09:31:37.976Z,28.88
2023-05-13T09:36:41.330Z,27.55
2023-05-13T09:41:43.194Z,27.76
2023-05-13T09:46:45.032Z,28.29
2023-05-13T09:51:46.963Z,27.60
2023-05-13T09:56:48.835Z,28.00
2023-05-13T10:01:51.084Z,27.56
2023-05-13T10:06:54.232Z,26.90
2023-05-13T10:11:58.505Z,27.17
2023-05-13T10:17:01.452Z,27.19
2023-05-13T10:22:04.674Z,27.92
2023-05-13T10:27:07.980Z,28.16
2023-05-13T10:32:12.139Z,28.11
2023-05-13T10:38:01.703Z,27.15
2023-05-13T10:43:22.130Z,26.60
2023-05-13T10:48:24.271Z,25.51
2023-05-13T10:53:31.955Z,25.04
2023-05-13T10:58:38.823Z,25.18
2023-05-13T11:03:42.013Z,25.34
2023-05-13T11:08:47.359Z,25.86
2023-05-13T11:13:59.397Z,25.41
2023-05-13T11:19:18.987Z,24.09
2023-05-13T11:24:22.411Z,24.05
2023-05-13T11:29:35.864Z,24.25
2023-05-13T11:34:49.197Z,24.29
2023-05-13T11:39:50.876Z,24.24
2023-05-13T11:44:54.195Z,24.40
2023-05-13T11:49:56.873Z,24.07
2023-05-13T11:54:58.864Z,24.06
2023-05-13T12:00:06.174Z,24.45
2023-05-13T12:05:10.750Z,24.44
2023-05-13T12:10:13.043Z,23.63
2023-05-13T12:20:24.582Z,23.31
2023-05-13T12:25:46.461Z,23.14
2023-05-13T12:30:51.533Z,22.39
2023-05-13T12:36:17.304Z,22.74
2023-05-13T12:41:19.295Z,22.37
2023-05-13T12:46:21.285Z,23.27
2023-05-13T12:51:24.231Z,23.93
2023-05-13T12:56:26.203Z,23.49
2023-05-13T13:01:28.274Z,22.95
2023-05-13T13:06:32.019Z,22.11
2023-05-13T13:11:33.791Z,21.65
2023-05-13T13:16:35.772Z,21.28
2023-05-13T13:21:37.853Z,20.84
2023-05-13T13:26:40.354Z,19.63
2023-05-13T13:31:42.570Z,20.93
2023-05-13T13:36:44.516Z,21.43
2023-05-13T13:41:46.906Z,22.11
2023-05-13T13:46:49.303Z,22.73
2023-05-13T13:51:52.819Z,21.91
2023-05-13T13:56:54.889Z,21.32
2023-05-13T14:01:56.985Z,23.95
2023-05-13T14:06:59.368Z,26.88
2023-05-13T14:12:01.268Z,27.34
2023-05-13T14:17:03.420Z,27.68
2023-05-13T14:22:05.402Z,28.09
2023-05-13T14:27:07.280Z,28.53
2023-05-13T14:32:08.962Z,27.75
2023-05-13T14:37:11.133Z,27.09
2023-05-13T14:42:13.132Z,25.93
2023-05-13T14:47:15.521Z,24.71
2023-05-13T14:52:17.273Z,23.81
2023-05-13T14:57:19.571Z,23.40
2023-05-13T15:02:21.406Z,23.30
2023-05-13T15:07:23.422Z,24.38
2023-05-13T15:12:25.929Z,24.66
2023-05-13T15:17:29.577Z,24.49
2023-05-13T15:22:33.337Z,25.10
2023-05-13T15:27:36.211Z,26.13
2023-05-13T15:32:38.391Z,26.51
2023-05-13T15:37:42.167Z,26.12
2023-05-13T15:42:47.838Z,26.15
2023-05-13T15:47:50.171Z,26.55
2023-05-13T15:52:54.247Z,26.69
2023-05-13T15:57:56.019Z,26.80
2023-05-13T16:02:57.829Z,26.77
2023-05-13T16:07:59.878Z,27.26
2023-05-13T16:13:02.169Z,27.35
2023-05-13T16:18:04.168Z,27.77
2023-05-13T16:23:06.034Z,28.51
2023-05-13T16:28:08.107Z,28.90
2023-05-13T16:33:11.076Z,29.33
2023-05-13T16:38:13.296Z,29.55
2023-05-13T16:43:15.378Z,30.47
2023-05-13T16:48:17.372Z,30.77
2023-05-13T16:53:21.897Z,31.08
2023-05-13T16:58:23.774Z,30.90
2023-05-13T17:03:25.617Z,31.24
2023-05-13T17:08:27.630Z,31.53
2023-05-13T17:13:29.922Z,32.19
2023-05-13T17:18:31.934Z,32.27
2023-05-13T17:23:33.983Z,32.78
2023-05-13T17:28:37.701Z,33.20
2023-05-13T17:33:39.812Z,33.56
2023-05-13T17:38:41.912Z,35.18
2023-05-13T17:43:43.756Z,36.87
2023-05-13T17:48:45.673Z,37.29
2023-05-13T17:53:48.016Z,37.49
2023-05-13T17:58:49.786Z,38.03
2023-05-13T18:03:51.670Z,38.47
2023-05-13T18:08:53.857Z,38.89
2023-05-13T18:13:55.834Z,39.62
2023-05-13T18:18:57.858Z,39.45
2023-05-13T18:24:00.182Z,40.35
2023-05-13T18:29:02.521Z,41.15
2023-05-13T18:34:04.369Z,41.68
2023-05-13T18:39:07.779Z,41.52
2023-05-13T18:44:09.655Z,42.24
2023-05-13T18:49:11.760Z,43.00
2023-05-13T18:54:13.621Z,43.30
2023-05-13T18:59:15.902Z,42.66
2023-05-13T19:04:18.032Z,43.13
2023-05-13T19:09:21.320Z,42.97
2023-05-13T19:14:23.214Z,42.93
2023-05-13T19:19:25.473Z,43.54
2023-05-13T19:24:27.439Z,43.78
2023-05-13T19:29:29.314Z,43.95
2023-05-13T19:34:31.605Z,44.14
2023-05-13T19:39:33.392Z,45.44
2023-05-13T19:44:36.176Z,45.72
2023-05-13T19:49:38.187Z,46.66
2023-05-13T19:54:40.249Z,47.46
2023-05-13T19:59:42.039Z,48.58
2023-05-13T20:04:43.997Z,49.63
2023-05-13T20:09:46.074Z,50.17
2023-05-13T20:15:00.038Z,50.87
2023-05-13T20:20:02.135Z,51.11
2023-05-13T20:25:05.248Z,52.02
2023-05-13T20:30:08.488Z,52.80
2023-05-13T20:35:10.316Z,53.55
2023-05-13T20:40:12.611Z,53.87
2023-05-13T20:45:14.591Z,53.73
2023-05-13T20:50:16.476Z,54.26
2023-05-13T20:55:20.084Z,54.74
2023-05-13T21:00:22.461Z,54.81
2023-05-13T21:05:24.830Z,55.24
2023-05-13T21:10:27.046Z,54.81
2023-05-13T21:15:29.549Z,55.55
2023-05-13T21:20:32.341Z,56.31
2023-05-13T21:25:34.320Z,56.97
2023-05-13T21:30:36.295Z,57.40
2023-05-13T21:35:38.069Z,57.14
2023-05-13T21:40:40.152Z,58.51
2023-05-13T21:45:42.239Z,59.24
2023-05-13T21:50:44.120Z,59.71
2023-05-13T21:55:45.894Z,59.02
2023-05-13T22:00:47.908Z,59.62
2023-05-13T22:05:49.756Z,59.33
2023-05-13T22:10:51.758Z,59.82
2023-05-13T22:15:53.958Z,60.02
2023-05-13T22:20:55.988Z,60.56
2023-05-13T22:25:57.783Z,71.18
2023-05-13T22:31:00.263Z,67.83
2023-05-13T22:36:02.163Z,55.80
2023-05-13T22:41:04.317Z,52.61
2023-05-13T22:46:06.122Z,52.62
2023-05-13T22:51:08.395Z,54.05
2023-05-13T22:56:10.683Z,55.04
2023-05-13T23:01:13.048Z,55.85
2023-05-13T23:06:15.044Z,56.79
2023-05-13T23:11:17.117Z,57.72
2023-05-13T23:16:19.498Z,58.20
2023-05-13T23:21:21.490Z,58.55
2023-05-13T23:26:24.399Z,60.40
2023-05-13T23:31:26.967Z,71.13
2023-05-13T23:36:28.960Z,68.51
2023-05-13T23:41:30.658Z,55.45
2023-05-13T23:46:32.430Z,52.85
2023-05-13T23:51:34.182Z,53.67
2023-05-13T23:56:35.987Z,55.53
